sensor_id;sensor_type;location;lat;lon;timestamp;pressure;altitude;pressure_sealevel;temperature;humidity
56176;BME280;63065;51.082;17.016;2023-04-27T00:00:23;100540.13;;;8.81;38.54
56176;BME280;63065;51.082;17.016;2023-04-27T00:02:50;100538.63;;;9.13;38.46
56176;BME280;63065;51.082;17.016;2023-04-27T00:05:14;100534.88;;;9.03;38.33
56176;BME280;63065;51.082;17.016;2023-04-27T00:07:40;100533.58;;;8.99;38.38
56176;BME280;63065;51.082;17.016;2023-04-27T00:10:07;100529.64;;;8.36;38.84
56176;BME280;63065;51.082;17.016;2023-04-27T00:12:31;100532.32;;;8.78;38.87
56176;BME280;63065;51.082;17.016;2023-04-27T00:14:57;100528.85;;;8.80;38.76
56176;BME280;63065;51.082;17.016;2023-04-27T00:17:23;100531.00;;;8.79;38.52
56176;BME280;63065;51.082;17.016;2023-04-27T00:19:48;100529.96;;;8.66;38.55
56176;BME280;63065;51.082;17.016;2023-04-27T00:22:13;100529.33;;;8.68;38.27
56176;BME280;63065;51.082;17.016;2023-04-27T00:24:38;100527.98;;;8.43;38.60
56176;BME280;63065;51.082;17.016;2023-04-27T00:27:03;100528.83;;;8.22;38.29
56176;BME280;63065;51.082;17.016;2023-04-27T00:29:29;100530.21;;;8.66;38.13
56176;BME280;63065;51.082;17.016;2023-04-27T00:31:54;100530.04;;;8.36;38.52
56176;BME280;63065;51.082;17.016;2023-04-27T00:34:20;100531.83;;;8.67;38.36
56176;BME280;63065;51.082;17.016;2023-04-27T00:36:45;100533.78;;;8.26;38.50
56176;BME280;63065;51.082;17.016;2023-04-27T00:39:10;100534.24;;;8.53;38.61
56176;BME280;63065;51.082;17.016;2023-04-27T00:41:36;100535.78;;;8.25;38.59
56176;BME280;63065;51.082;17.016;2023-04-27T00:44:00;100535.92;;;8.44;38.54
56176;BME280;63065;51.082;17.016;2023-04-27T00:46:26;100535.36;;;8.43;38.27
56176;BME280;63065;51.082;17.016;2023-04-27T00:48:51;100535.23;;;8.32;38.81
56176;BME280;63065;51.082;17.016;2023-04-27T00:51:16;100536.24;;;8.36;38.91
56176;BME280;63065;51.082;17.016;2023-04-27T00:53:42;100537.07;;;8.43;38.48
56176;BME280;63065;51.082;17.016;2023-04-27T00:56:07;100538.14;;;8.35;38.65
56176;BME280;63065;51.082;17.016;2023-04-27T00:58:33;100537.16;;;8.28;38.50
56176;BME280;63065;51.082;17.016;2023-04-27T01:00:59;100534.66;;;8.30;38.53
56176;BME280;63065;51.082;17.016;2023-04-27T01:03:25;100533.42;;;8.34;38.66
56176;BME280;63065;51.082;17.016;2023-04-27T01:05:50;100533.98;;;8.20;38.43
56176;BME280;63065;51.082;17.016;2023-04-27T01:08:15;100533.58;;;8.16;39.02
56176;BME280;63065;51.082;17.016;2023-04-27T01:10:40;100534.33;;;8.34;38.55
56176;BME280;63065;51.082;17.016;2023-04-27T01:13:05;100535.49;;;8.12;38.79
56176;BME280;63065;51.082;17.016;2023-04-27T01:15:31;100534.75;;;7.83;38.70
56176;BME280;63065;51.082;17.016;2023-04-27T01:17:57;100536.57;;;8.22;38.92
56176;BME280;63065;51.082;17.016;2023-04-27T01:20:22;100538.23;;;8.02;38.88
56176;BME280;63065;51.082;17.016;2023-04-27T01:22:48;100539.87;;;7.97;38.90
56176;BME280;63065;51.082;17.016;2023-04-27T01:25:14;100537.74;;;7.92;38.93
56176;BME280;63065;51.082;17.016;2023-04-27T01:27:39;100537.51;;;7.86;39.00
56176;BME280;63065;51.082;17.016;2023-04-27T01:30:06;100536.07;;;7.81;39.32
56176;BME280;63065;51.082;17.016;2023-04-27T01:32:30;100535.52;;;7.78;39.38
56176;BME280;63065;51.082;17.016;2023-04-27T01:34:55;100535.07;;;8.03;39.34
56176;BME280;63065;51.082;17.016;2023-04-27T01:37:20;100537.20;;;7.74;39.27
56176;BME280;63065;51.082;17.016;2023-04-27T01:39:46;100539.38;;;8.17;39.30
56176;BME280;63065;51.082;17.016;2023-04-27T01:42:11;100542.34;;;7.68;39.26
56176;BME280;63065;51.082;17.016;2023-04-27T01:44:36;100541.46;;;7.65;39.07
56176;BME280;63065;51.082;17.016;2023-04-27T01:47:02;100540.39;;;7.66;39.24
56176;BME280;63065;51.082;17.016;2023-04-27T01:49:27;100542.34;;;7.58;39.60
56176;BME280;63065;51.082;17.016;2023-04-27T01:51:52;100543.10;;;7.61;39.17
56176;BME280;63065;51.082;17.016;2023-04-27T01:54:18;100543.65;;;7.83;39.18
56176;BME280;63065;51.082;17.016;2023-04-27T01:56:43;100544.35;;;7.85;39.23
56176;BME280;63065;51.082;17.016;2023-04-27T01:59:08;100545.84;;;7.83;39.27
56176;BME280;63065;51.082;17.016;2023-04-27T02:01:33;100549.16;;;7.94;39.36
56176;BME280;63065;51.082;17.016;2023-04-27T02:03:58;100546.31;;;7.39;39.53
56176;BME280;63065;51.082;17.016;2023-04-27T02:06:23;100549.19;;;7.60;39.45
56176;BME280;63065;51.082;17.016;2023-04-27T02:08:50;100550.91;;;7.69;39.22
56176;BME280;63065;51.082;17.016;2023-04-27T02:11:15;100546.42;;;7.58;39.44
56176;BME280;63065;51.082;17.016;2023-04-27T02:13:40;100547.95;;;7.44;39.63
56176;BME280;63065;51.082;17.016;2023-04-27T02:16:06;100547.74;;;7.60;39.55
56176;BME280;63065;51.082;17.016;2023-04-27T02:18:31;100548.70;;;7.60;39.12
56176;BME280;63065;51.082;17.016;2023-04-27T02:20:56;100546.89;;;7.55;39.31
56176;BME280;63065;51.082;17.016;2023-04-27T02:23:21;100548.30;;;7.75;39.52
56176;BME280;63065;51.082;17.016;2023-04-27T02:25:46;100551.21;;;7.49;39.53
56176;BME280;63065;51.082;17.016;2023-04-27T02:28:12;100554.04;;;7.36;39.61
56176;BME280;63065;51.082;17.016;2023-04-27T02:30:38;100555.15;;;7.40;39.60
56176;BME280;63065;51.082;17.016;2023-04-27T02:33:03;100556.32;;;7.20;39.65
56176;BME280;63065;51.082;17.016;2023-04-27T02:35:28;100556.47;;;7.45;39.45
56176;BME280;63065;51.082;17.016;2023-04-27T02:37:53;100555.18;;;7.29;39.54
56176;BME280;63065;51.082;17.016;2023-04-27T02:40:18;100555.10;;;7.22;39.87
56176;BME280;63065;51.082;17.016;2023-04-27T02:42:43;100558.00;;;7.00;39.63
56176;BME280;63065;51.082;17.016;2023-04-27T02:45:09;100557.92;;;7.28;39.92
56176;BME280;63065;51.082;17.016;2023-04-27T02:47:35;100559.75;;;7.48;39.44
56176;BME280;63065;51.082;17.016;2023-04-27T02:50:01;100559.57;;;7.45;39.55
56176;BME280;63065;51.082;17.016;2023-04-27T02:52:25;100560.20;;;7.48;39.43
56176;BME280;63065;51.082;17.016;2023-04-27T02:54:51;100563.56;;;7.14;39.62
56176;BME280;63065;51.082;17.016;2023-04-27T02:57:16;100562.67;;;7.37;39.19
56176;BME280;63065;51.082;17.016;2023-04-27T02:59:41;100563.48;;;7.33;39.54
56176;BME280;63065;51.082;17.016;2023-04-27T03:02:06;100561.12;;;7.14;39.75
56176;BME280;63065;51.082;17.016;2023-04-27T03:04:32;100562.40;;;7.41;39.26
56176;BME280;63065;51.082;17.016;2023-04-27T03:06:58;100564.67;;;7.49;39.40
56176;BME280;63065;51.082;17.016;2023-04-27T03:09:23;100563.84;;;7.17;39.65
56176;BME280;63065;51.082;17.016;2023-04-27T03:11:49;100567.62;;;7.37;39.41
56176;BME280;63065;51.082;17.016;2023-04-27T03:14:14;100567.34;;;7.28;39.23
56176;BME280;63065;51.082;17.016;2023-04-27T03:16:39;100565.04;;;7.31;39.46
56176;BME280;63065;51.082;17.016;2023-04-27T03:19:05;100566.80;;;7.22;39.66
56176;BME280;63065;51.082;17.016;2023-04-27T03:21:30;100566.75;;;7.01;39.53
56176;BME280;63065;51.082;17.016;2023-04-27T03:23:55;100567.62;;;7.22;39.60
56176;BME280;63065;51.082;17.016;2023-04-27T03:26:21;100566.45;;;7.20;39.55
56176;BME280;63065;51.082;17.016;2023-04-27T03:28:46;100566.35;;;7.14;39.79
56176;BME280;63065;51.082;17.016;2023-04-27T03:31:13;100568.86;;;7.14;39.57
56176;BME280;63065;51.082;17.016;2023-04-27T03:33:37;100570.24;;;7.19;39.55
56176;BME280;63065;51.082;17.016;2023-04-27T03:36:03;100572.60;;;7.30;39.13
56176;BME280;63065;51.082;17.016;2023-04-27T03:38:27;100574.85;;;7.33;39.16
56176;BME280;63065;51.082;17.016;2023-04-27T03:40:53;100576.80;;;7.37;39.12
56176;BME280;63065;51.082;17.016;2023-04-27T03:43:19;100581.81;;;7.39;39.26
56176;BME280;63065;51.082;17.016;2023-04-27T03:45:43;100586.76;;;7.43;38.97
56176;BME280;63065;51.082;17.016;2023-04-27T03:48:09;100587.85;;;7.57;38.44
56176;BME280;63065;51.082;17.016;2023-04-27T03:50:34;100591.07;;;7.56;38.11
56176;BME280;63065;51.082;17.016;2023-04-27T03:53:00;100592.07;;;7.59;38.98
56176;BME280;63065;51.082;17.016;2023-04-27T03:55:25;100594.99;;;7.61;38.19
56176;BME280;63065;51.082;17.016;2023-04-27T03:57:50;100597.13;;;7.65;38.70
56176;BME280;63065;51.082;17.016;2023-04-27T04:00:16;100594.86;;;7.67;38.73
56176;BME280;63065;51.082;17.016;2023-04-27T04:02:41;100596.20;;;7.81;38.50
56176;BME280;63065;51.082;17.016;2023-04-27T04:05:07;100601.22;;;7.75;38.57
56176;BME280;63065;51.082;17.016;2023-04-27T04:07:32;100603.64;;;7.93;38.45
56176;BME280;63065;51.082;17.016;2023-04-27T04:09:58;100600.05;;;7.80;38.68
56176;BME280;63065;51.082;17.016;2023-04-27T04:12:23;100602.29;;;8.27;38.34
56176;BME280;63065;51.082;17.016;2023-04-27T04:14:48;100603.14;;;8.42;38.28
56176;BME280;63065;51.082;17.016;2023-04-27T04:17:13;100607.18;;;8.52;38.35
56176;BME280;63065;51.082;17.016;2023-04-27T04:19:39;100612.82;;;8.65;38.07
56176;BME280;63065;51.082;17.016;2023-04-27T04:22:04;100616.07;;;8.75;37.06
56176;BME280;63065;51.082;17.016;2023-04-27T04:24:30;100617.73;;;8.42;37.52
56176;BME280;63065;51.082;17.016;2023-04-27T04:26:55;100620.46;;;7.72;37.55
56176;BME280;63065;51.082;17.016;2023-04-27T04:29:20;100626.11;;;7.62;37.90
56176;BME280;63065;51.082;17.016;2023-04-27T04:31:45;100625.21;;;8.32;37.27
56176;BME280;63065;51.082;17.016;2023-04-27T04:34:12;100628.36;;;8.28;38.25
56176;BME280;63065;51.082;17.016;2023-04-27T04:36:36;100630.58;;;8.14;37.37
56176;BME280;63065;51.082;17.016;2023-04-27T04:39:02;100635.81;;;8.31;37.59
56176;BME280;63065;51.082;17.016;2023-04-27T04:41:28;100638.85;;;8.53;37.08
56176;BME280;63065;51.082;17.016;2023-04-27T04:43:53;100639.44;;;8.64;36.82
56176;BME280;63065;51.082;17.016;2023-04-27T04:46:18;100639.24;;;8.73;37.07
56176;BME280;63065;51.082;17.016;2023-04-27T04:48:43;100642.97;;;8.64;37.38
56176;BME280;63065;51.082;17.016;2023-04-27T04:51:08;100642.95;;;8.72;35.51
56176;BME280;63065;51.082;17.016;2023-04-27T04:53:34;100649.00;;;8.69;36.97
56176;BME280;63065;51.082;17.016;2023-04-27T04:56:07;100650.37;;;9.21;36.48
56176;BME280;63065;51.082;17.016;2023-04-27T04:58:24;100650.85;;;9.03;35.65
56176;BME280;63065;51.082;17.016;2023-04-27T05:00:50;100654.37;;;9.17;36.50
56176;BME280;63065;51.082;17.016;2023-04-27T05:03:15;100653.64;;;9.31;35.03
56176;BME280;63065;51.082;17.016;2023-04-27T05:05:41;100653.78;;;9.54;36.05
56176;BME280;63065;51.082;17.016;2023-04-27T05:08:06;100657.52;;;9.17;35.79
56176;BME280;63065;51.082;17.016;2023-04-27T05:10:32;100661.19;;;9.63;35.49
56176;BME280;63065;51.082;17.016;2023-04-27T05:12:57;100662.62;;;9.64;35.24
56176;BME280;63065;51.082;17.016;2023-04-27T05:15:23;100666.27;;;8.61;35.50
56176;BME280;63065;51.082;17.016;2023-04-27T05:17:49;100667.07;;;9.31;36.09
56176;BME280;63065;51.082;17.016;2023-04-27T05:20:15;100665.32;;;9.73;34.90
56176;BME280;63065;51.082;17.016;2023-04-27T05:22:40;100671.98;;;9.45;35.16
56176;BME280;63065;51.082;17.016;2023-04-27T05:25:06;100671.46;;;9.62;35.04
56176;BME280;63065;51.082;17.016;2023-04-27T05:27:31;100670.83;;;9.46;34.74
56176;BME280;63065;51.082;17.016;2023-04-27T05:29:56;100668.52;;;9.67;35.22
56176;BME280;63065;51.082;17.016;2023-04-27T05:32:21;100670.80;;;9.37;35.75
56176;BME280;63065;51.082;17.016;2023-04-27T05:34:47;100669.33;;;9.91;35.40
56176;BME280;63065;51.082;17.016;2023-04-27T05:37:11;100670.84;;;10.05;34.00
56176;BME280;63065;51.082;17.016;2023-04-27T05:39:38;100673.54;;;10.33;34.13
56176;BME280;63065;51.082;17.016;2023-04-27T05:42:02;100672.84;;;9.84;34.60
56176;BME280;63065;51.082;17.016;2023-04-27T05:44:27;100677.76;;;9.73;34.06
56176;BME280;63065;51.082;17.016;2023-04-27T05:46:52;100678.16;;;10.32;33.76
56176;BME280;63065;51.082;17.016;2023-04-27T05:49:17;100680.54;;;10.48;33.31
56176;BME280;63065;51.082;17.016;2023-04-27T05:51:43;100683.70;;;10.02;34.66
56176;BME280;63065;51.082;17.016;2023-04-27T05:54:08;100685.34;;;10.38;33.71
56176;BME280;63065;51.082;17.016;2023-04-27T05:56:34;100684.56;;;8.54;35.89
56176;BME280;63065;51.082;17.016;2023-04-27T05:59:00;100690.34;;;8.96;37.06
56176;BME280;63065;51.082;17.016;2023-04-27T06:01:26;100694.18;;;9.47;36.09
56176;BME280;63065;51.082;17.016;2023-04-27T06:03:52;100697.64;;;10.09;35.15
56176;BME280;63065;51.082;17.016;2023-04-27T06:06:17;100698.63;;;10.49;34.78
56176;BME280;63065;51.082;17.016;2023-04-27T06:08:43;100698.16;;;9.78;34.15
56176;BME280;63065;51.082;17.016;2023-04-27T06:11:09;100698.75;;;9.64;34.54
56176;BME280;63065;51.082;17.016;2023-04-27T06:13:34;100697.62;;;9.44;35.91
56176;BME280;63065;51.082;17.016;2023-04-27T06:15:59;100696.86;;;9.63;35.16
56176;BME280;63065;51.082;17.016;2023-04-27T06:18:25;100696.37;;;9.14;35.38
56176;BME280;63065;51.082;17.016;2023-04-27T06:20:51;100697.01;;;8.94;35.56
56176;BME280;63065;51.082;17.016;2023-04-27T06:23:15;100697.11;;;7.89;36.73
56176;BME280;63065;51.082;17.016;2023-04-27T06:25:41;100700.34;;;9.22;35.54
56176;BME280;63065;51.082;17.016;2023-04-27T06:28:07;100697.41;;;8.36;37.15
56176;BME280;63065;51.082;17.016;2023-04-27T06:30:32;100699.07;;;8.63;36.73
56176;BME280;63065;51.082;17.016;2023-04-27T06:32:57;100699.61;;;9.16;35.77
56176;BME280;63065;51.082;17.016;2023-04-27T06:35:23;100699.04;;;7.97;36.17
56176;BME280;63065;51.082;17.016;2023-04-27T06:37:48;100701.72;;;8.68;37.02
56176;BME280;63065;51.082;17.016;2023-04-27T06:40:14;100705.03;;;6.90;38.68
56176;BME280;63065;51.082;17.016;2023-04-27T06:42:40;100707.47;;;7.20;39.55
56176;BME280;63065;51.082;17.016;2023-04-27T06:45:06;100706.88;;;6.55;40.44
56176;BME280;63065;51.082;17.016;2023-04-27T06:47:31;100704.53;;;8.65;38.53
56176;BME280;63065;51.082;17.016;2023-04-27T06:49:56;100704.36;;;9.06;36.85
56176;BME280;63065;51.082;17.016;2023-04-27T06:52:22;100698.13;;;8.96;36.20
56176;BME280;63065;51.082;17.016;2023-04-27T06:54:47;100693.39;;;8.73;36.40
56176;BME280;63065;51.082;17.016;2023-04-27T06:57:12;100692.20;;;9.47;36.94
56176;BME280;63065;51.082;17.016;2023-04-27T06:59:38;100688.95;;;7.83;38.37
56176;BME280;63065;51.082;17.016;2023-04-27T07:02:04;100685.24;;;7.27;39.77
56176;BME280;63065;51.082;17.016;2023-04-27T07:04:29;100684.16;;;8.25;39.56
56176;BME280;63065;51.082;17.016;2023-04-27T07:06:54;100683.91;;;8.47;39.27
56176;BME280;63065;51.082;17.016;2023-04-27T07:09:19;100686.94;;;9.29;37.20
56176;BME280;63065;51.082;17.016;2023-04-27T07:11:44;100685.74;;;8.57;37.51
56176;BME280;63065;51.082;17.016;2023-04-27T07:14:10;100686.45;;;9.02;36.83
56176;BME280;63065;51.082;17.016;2023-04-27T07:16:36;100682.54;;;10.46;36.74
56176;BME280;63065;51.082;17.016;2023-04-27T07:19:01;100681.44;;;10.21;33.89
56176;BME280;63065;51.082;17.016;2023-04-27T07:21:26;100681.19;;;10.92;33.64
56176;BME280;63065;51.082;17.016;2023-04-27T07:23:51;100687.28;;;11.41;33.42
56176;BME280;63065;51.082;17.016;2023-04-27T07:26:17;100687.59;;;11.98;33.21
56176;BME280;63065;51.082;17.016;2023-04-27T07:28:42;100686.67;;;10.53;33.94
56176;BME280;63065;51.082;17.016;2023-04-27T07:31:08;100686.82;;;12.05;31.99
56176;BME280;63065;51.082;17.016;2023-04-27T07:33:33;100688.80;;;12.25;32.06
56176;BME280;63065;51.082;17.016;2023-04-27T07:35:59;100688.04;;;12.40;31.27
56176;BME280;63065;51.082;17.016;2023-04-27T07:38:25;100682.48;;;13.34;30.06
56176;BME280;63065;51.082;17.016;2023-04-27T07:40:51;100682.74;;;13.32;29.30
56176;BME280;63065;51.082;17.016;2023-04-27T07:43:16;100682.25;;;12.31;29.84
56176;BME280;63065;51.082;17.016;2023-04-27T07:45:41;100682.26;;;12.36;31.38
56176;BME280;63065;51.082;17.016;2023-04-27T07:48:07;100682.98;;;13.33;29.99
56176;BME280;63065;51.082;17.016;2023-04-27T07:50:33;100685.20;;;13.45;29.53
56176;BME280;63065;51.082;17.016;2023-04-27T07:52:59;100686.34;;;13.44;29.18
56176;BME280;63065;51.082;17.016;2023-04-27T07:55:25;100685.33;;;13.12;29.00
56176;BME280;63065;51.082;17.016;2023-04-27T07:57:51;100688.71;;;12.52;30.00
56176;BME280;63065;51.082;17.016;2023-04-27T08:00:16;100686.47;;;12.94;29.95
56176;BME280;63065;51.082;17.016;2023-04-27T08:02:42;100690.26;;;13.11;30.15
56176;BME280;63065;51.082;17.016;2023-04-27T08:05:07;100691.44;;;11.81;31.35
56176;BME280;63065;51.082;17.016;2023-04-27T08:07:33;100695.56;;;10.86;32.83
56176;BME280;63065;51.082;17.016;2023-04-27T08:09:57;100693.28;;;11.14;32.28
56176;BME280;63065;51.082;17.016;2023-04-27T08:12:23;100700.46;;;9.55;32.94
56176;BME280;63065;51.082;17.016;2023-04-27T08:14:48;100694.16;;;10.25;34.16
56176;BME280;63065;51.082;17.016;2023-04-27T08:17:13;100698.16;;;10.20;33.17
56176;BME280;63065;51.082;17.016;2023-04-27T08:19:39;100698.44;;;11.37;34.08
56176;BME280;63065;51.082;17.016;2023-04-27T08:22:04;100694.18;;;10.47;33.43
56176;BME280;63065;51.082;17.016;2023-04-27T08:24:30;100696.98;;;10.75;32.95
56176;BME280;63065;51.082;17.016;2023-04-27T08:26:55;100699.63;;;11.10;32.48
56176;BME280;63065;51.082;17.016;2023-04-27T08:29:21;100698.34;;;10.83;32.55
56176;BME280;63065;51.082;17.016;2023-04-27T08:31:47;100701.15;;;11.53;31.07
56176;BME280;63065;51.082;17.016;2023-04-27T08:34:13;100697.53;;;12.50;29.85
56176;BME280;63065;51.082;17.016;2023-04-27T08:36:38;100699.78;;;13.81;30.25
56176;BME280;63065;51.082;17.016;2023-04-27T08:39:04;100702.70;;;14.15;30.11
56176;BME280;63065;51.082;17.016;2023-04-27T08:41:30;100700.55;;;14.40;29.43
56176;BME280;63065;51.082;17.016;2023-04-27T08:43:55;100703.19;;;14.01;29.61
56176;BME280;63065;51.082;17.016;2023-04-27T08:46:22;100705.42;;;15.02;29.26
56176;BME280;63065;51.082;17.016;2023-04-27T08:48:49;100709.48;;;14.27;29.14
56176;BME280;63065;51.082;17.016;2023-04-27T08:51:14;100703.88;;;13.08;29.81
56176;BME280;63065;51.082;17.016;2023-04-27T08:53:44;100706.52;;;13.50;29.26
56176;BME280;63065;51.082;17.016;2023-04-27T08:56:04;100703.78;;;12.75;30.99
56176;BME280;63065;51.082;17.016;2023-04-27T08:58:35;100702.64;;;13.86;29.12
56176;BME280;63065;51.082;17.016;2023-04-27T09:00:54;100707.35;;;13.16;30.25
56176;BME280;63065;51.082;17.016;2023-04-27T09:03:22;100706.60;;;12.81;30.85
56176;BME280;63065;51.082;17.016;2023-04-27T09:05:45;100703.18;;;12.69;30.33
56176;BME280;63065;51.082;17.016;2023-04-27T09:08:11;100707.10;;;11.53;31.46
56176;BME280;63065;51.082;17.016;2023-04-27T09:10:42;100708.69;;;10.93;32.86
56176;BME280;63065;51.082;17.016;2023-04-27T09:13:02;100706.46;;;11.37;32.67
56176;BME280;63065;51.082;17.016;2023-04-27T09:15:28;100704.64;;;10.76;32.95
56176;BME280;63065;51.082;17.016;2023-04-27T09:17:54;100706.51;;;10.35;32.67
56176;BME280;63065;51.082;17.016;2023-04-27T09:20:18;100695.52;;;12.22;31.57
56176;BME280;63065;51.082;17.016;2023-04-27T09:22:44;100694.30;;;12.24;30.83
56176;BME280;63065;51.082;17.016;2023-04-27T09:25:09;100690.76;;;13.02;29.83
56176;BME280;63065;51.082;17.016;2023-04-27T09:27:35;100693.99;;;14.11;29.75
56176;BME280;63065;51.082;17.016;2023-04-27T09:30:00;100697.69;;;13.99;29.55
56176;BME280;63065;51.082;17.016;2023-04-27T09:32:25;100688.31;;;12.11;29.42
56176;BME280;63065;51.082;17.016;2023-04-27T09:34:51;100686.72;;;11.90;30.65
56176;BME280;63065;51.082;17.016;2023-04-27T09:37:16;100692.51;;;11.21;31.16
56176;BME280;63065;51.082;17.016;2023-04-27T09:39:42;100690.29;;;12.25;30.74
56176;BME280;63065;51.082;17.016;2023-04-27T09:42:08;100685.58;;;13.13;29.40
56176;BME280;63065;51.082;17.016;2023-04-27T09:44:34;100686.88;;;13.51;28.69
56176;BME280;63065;51.082;17.016;2023-04-27T09:47:00;100688.78;;;12.65;29.91
56176;BME280;63065;51.082;17.016;2023-04-27T09:49:26;100686.15;;;14.02;28.49
56176;BME280;63065;51.082;17.016;2023-04-27T09:51:51;100685.46;;;14.67;28.16
56176;BME280;63065;51.082;17.016;2023-04-27T09:54:17;100687.49;;;14.69;27.72
56176;BME280;63065;51.082;17.016;2023-04-27T09:56:51;100687.74;;;13.53;28.43
56176;BME280;63065;51.082;17.016;2023-04-27T09:59:19;100692.02;;;13.52;28.28
56176;BME280;63065;51.082;17.016;2023-04-27T10:01:39;100691.37;;;11.57;29.69
56176;BME280;63065;51.082;17.016;2023-04-27T10:04:19;100688.90;;;10.83;30.51
56176;BME280;63065;51.082;17.016;2023-04-27T10:08:51;100687.44;;;12.50;29.31
56176;BME280;63065;51.082;17.016;2023-04-27T10:11:16;100688.90;;;12.52;29.65
56176;BME280;63065;51.082;17.016;2023-04-27T10:13:51;100694.49;;;13.13;28.66
56176;BME280;63065;51.082;17.016;2023-04-27T10:16:14;100689.54;;;13.43;30.21
56176;BME280;63065;51.082;17.016;2023-04-27T10:18:34;100692.12;;;14.09;28.29
56176;BME280;63065;51.082;17.016;2023-04-27T10:23:26;100688.62;;;13.69;29.16
56176;BME280;63065;51.082;17.016;2023-04-27T10:25:51;100690.88;;;15.00;27.60
56176;BME280;63065;51.082;17.016;2023-04-27T10:28:16;100689.36;;;14.38;27.88
56176;BME280;63065;51.082;17.016;2023-04-27T10:30:45;100687.59;;;13.06;27.73
56176;BME280;63065;51.082;17.016;2023-04-27T10:33:09;100688.79;;;13.31;28.79
56176;BME280;63065;51.082;17.016;2023-04-27T10:35:35;100688.19;;;14.69;28.04
56176;BME280;63065;51.082;17.016;2023-04-27T10:38:05;100687.65;;;14.99;26.66
56176;BME280;63065;51.082;17.016;2023-04-27T10:40:32;100690.04;;;14.03;25.91
56176;BME280;63065;51.082;17.016;2023-04-27T10:42:49;100680.76;;;15.67;27.43
56176;BME280;63065;51.082;17.016;2023-04-27T10:47:41;100679.25;;;16.29;26.44
56176;BME280;63065;51.082;17.016;2023-04-27T10:50:07;100673.41;;;16.74;25.35
56176;BME280;63065;51.082;17.016;2023-04-27T10:52:31;100675.87;;;16.82;25.15
56176;BME280;63065;51.082;17.016;2023-04-27T10:54:56;100676.90;;;16.35;24.16
56176;BME280;63065;51.082;17.016;2023-04-27T10:57:22;100673.97;;;16.00;24.36
56176;BME280;63065;51.082;17.016;2023-04-27T10:59:49;100677.23;;;16.25;23.74
56176;BME280;63065;51.082;17.016;2023-04-27T11:02:13;100691.42;;;14.14;26.17
56176;BME280;63065;51.082;17.016;2023-04-27T11:04:39;100689.08;;;13.67;26.53
56176;BME280;63065;51.082;17.016;2023-04-27T11:07:05;100693.03;;;13.95;26.25
56176;BME280;63065;51.082;17.016;2023-04-27T11:09:30;100688.70;;;11.34;27.66
56176;BME280;63065;51.082;17.016;2023-04-27T11:11:56;100693.73;;;11.91;28.72
56176;BME280;63065;51.082;17.016;2023-04-27T11:14:21;100690.57;;;13.60;27.71
56176;BME280;63065;51.082;17.016;2023-04-27T11:16:47;100693.70;;;12.01;27.73
56176;BME280;63065;51.082;17.016;2023-04-27T11:19:12;100694.43;;;12.92;27.95
56176;BME280;63065;51.082;17.016;2023-04-27T11:21:38;100703.98;;;11.72;28.79
56176;BME280;63065;51.082;17.016;2023-04-27T11:24:04;100703.87;;;12.65;28.00
56176;BME280;63065;51.082;17.016;2023-04-27T11:26:29;100705.31;;;13.10;27.51
56176;BME280;63065;51.082;17.016;2023-04-27T11:28:59;100709.02;;;11.48;30.13
56176;BME280;63065;51.082;17.016;2023-04-27T11:31:20;100712.38;;;12.30;30.32
56176;BME280;63065;51.082;17.016;2023-04-27T11:33:47;100714.54;;;11.63;31.09
56176;BME280;63065;51.082;17.016;2023-04-27T11:36:15;100706.66;;;12.27;30.13
56176;BME280;63065;51.082;17.016;2023-04-27T11:38:37;100710.27;;;12.45;29.64
56176;BME280;63065;51.082;17.016;2023-04-27T11:41:04;100705.26;;;13.47;27.83
56176;BME280;63065;51.082;17.016;2023-04-27T11:43:28;100707.00;;;13.04;25.98
56176;BME280;63065;51.082;17.016;2023-04-27T11:45:54;100713.63;;;12.57;25.80
56176;BME280;63065;51.082;17.016;2023-04-27T11:48:22;100717.20;;;12.14;27.10
56176;BME280;63065;51.082;17.016;2023-04-27T11:50:46;100724.04;;;11.50;28.89
56176;BME280;63065;51.082;17.016;2023-04-27T11:53:10;100729.21;;;11.84;29.92
56176;BME280;63065;51.082;17.016;2023-04-27T11:55:36;100727.11;;;12.11;30.19
56176;BME280;63065;51.082;17.016;2023-04-27T11:58:01;100720.98;;;13.21;32.62
56176;BME280;63065;51.082;17.016;2023-04-27T12:00:26;100716.00;;;13.58;33.75
56176;BME280;63065;51.082;17.016;2023-04-27T12:02:52;100718.14;;;14.34;34.00
56176;BME280;63065;51.082;17.016;2023-04-27T12:05:18;100714.14;;;12.05;32.74
56176;BME280;63065;51.082;17.016;2023-04-27T12:07:43;100716.35;;;11.19;34.99
56176;BME280;63065;51.082;17.016;2023-04-27T12:10:09;100710.25;;;11.02;32.40
56176;BME280;63065;51.082;17.016;2023-04-27T12:12:35;100708.49;;;10.74;34.36
56176;BME280;63065;51.082;17.016;2023-04-27T12:15:00;100710.09;;;11.21;32.03
56176;BME280;63065;51.082;17.016;2023-04-27T12:17:26;100713.13;;;11.68;32.96
56176;BME280;63065;51.082;17.016;2023-04-27T12:19:52;100719.03;;;11.14;31.63
56176;BME280;63065;51.082;17.016;2023-04-27T12:22:17;100709.90;;;11.85;32.12
56176;BME280;63065;51.082;17.016;2023-04-27T12:24:42;100712.85;;;11.05;32.54
56176;BME280;63065;51.082;17.016;2023-04-27T12:27:07;100711.34;;;11.70;31.95
56176;BME280;63065;51.082;17.016;2023-04-27T12:29:33;100706.53;;;13.22;29.77
56176;BME280;63065;51.082;17.016;2023-04-27T12:31:58;100705.93;;;13.54;28.93
56176;BME280;63065;51.082;17.016;2023-04-27T12:34:24;100706.46;;;12.24;29.29
56176;BME280;63065;51.082;17.016;2023-04-27T12:36:49;100707.74;;;14.13;27.32
56176;BME280;63065;51.082;17.016;2023-04-27T12:39:17;100700.12;;;13.52;26.95
56176;BME280;63065;51.082;17.016;2023-04-27T12:41:41;100699.06;;;14.32;26.94